Map

Track Data

SID SEASON NUMBER BASIN SUBBASIN NAME ISO_TIME NATURE LAT LON WMO_WIND WMO_PRES WMO_AGENCY TRACK_TYPE DIST2LAND LANDFALL IFLAG USA_AGENCY USA_ATCF_ID USA_LAT USA_LON USA_RECORD USA_STATUS USA_WIND USA_PRES USA_SSHS USA_R34_NE USA_R34_SE USA_R34_SW USA_R34_NW USA_R50_NE USA_R50_SE USA_R50_SW USA_R50_NW USA_R64_NE USA_R64_SE USA_R64_SW USA_R64_NW USA_POCI USA_ROCI USA_RMW USA_EYE TOKYO_LAT TOKYO_LON TOKYO_GRADE TOKYO_WIND TOKYO_PRES TOKYO_R50_DIR TOKYO_R50_LONG TOKYO_R50_SHORT TOKYO_R30_DIR TOKYO_R30_LONG TOKYO_R30_SHORT TOKYO_LAND CMA_LAT CMA_LON CMA_CAT CMA_WIND CMA_PRES HKO_LAT HKO_LON HKO_CAT HKO_WIND HKO_PRES NEWDELHI_LAT NEWDELHI_LON NEWDELHI_GRADE NEWDELHI_WIND NEWDELHI_PRES NEWDELHI_CI NEWDELHI_DP NEWDELHI_POCI REUNION_LAT REUNION_LON REUNION_TYPE REUNION_WIND REUNION_PRES REUNION_TNUM REUNION_CI REUNION_RMW REUNION_R34_NE REUNION_R34_SE REUNION_R34_SW REUNION_R34_NW REUNION_R50_NE REUNION_R50_SE REUNION_R50_SW REUNION_R50_NW REUNION_R64_NE REUNION_R64_SE REUNION_R64_SW REUNION_R64_NW BOM_LAT BOM_LON BOM_TYPE BOM_WIND BOM_PRES BOM_TNUM BOM_CI BOM_RMW BOM_R34_NE BOM_R34_SE BOM_R34_SW BOM_R34_NW BOM_R50_NE BOM_R50_SE BOM_R50_SW BOM_R50_NW BOM_R64_NE BOM_R64_SE BOM_R64_SW BOM_R64_NW BOM_ROCI BOM_POCI BOM_EYE BOM_POS_METHOD BOM_PRES_METHOD NADI_LAT NADI_LON NADI_CAT NADI_WIND NADI_PRES WELLINGTON_LAT WELLINGTON_LON WELLINGTON_WIND WELLINGTON_PRES DS824_LAT DS824_LON DS824_STAGE DS824_WIND DS824_PRES TD9636_LAT TD9636_LON TD9636_STAGE TD9636_WIND TD9636_PRES TD9635_LAT TD9635_LON TD9635_WIND TD9635_PRES TD9635_ROCI NEUMANN_LAT NEUMANN_LON NEUMANN_CLASS NEUMANN_WIND NEUMANN_PRES MLC_LAT MLC_LON MLC_CLASS MLC_WIND MLC_PRES USA_GUST BOM_GUST BOM_GUST_PER REUNION_GUST REUNION_GUST_PER USA_SEAHGT USA_SEARAD_NE USA_SEARAD_SE USA_SEARAD_SW USA_SEARAD_NW STORM_SPEED STORM_DIR
1913040S17053 1913 15 SI MM NOT_NAMED 1913-02-09 00:00:00 TS -17.3000 52.7000 main 303 303 _________O____ -1 -17.3000 52.7000 TC 25 8 194
1913040S17053 1913 15 SI MM NOT_NAMED 1913-02-09 03:00:00 TS -17.6925 52.5901 main 313 311 _________P____ -1 -17.6925 52.5901 TC 25 8 193
1913040S17053 1913 15 SI MM NOT_NAMED 1913-02-09 06:00:00 TS -18.1000 52.5000 main 320 318 _________O____ -1 -18.1000 52.5000 TC 25 9 189
1913040S17053 1913 15 SI MM NOT_NAMED 1913-02-09 09:00:00 TS -18.5350 52.4424 main 318 318 _________P____ -1 -18.5350 52.4424 TC 25 9 186
1913040S17053 1913 15 SI MM NOT_NAMED 1913-02-09 12:00:00 TS -19.0000 52.4000 main 328 328 _________O____ -1 -19.0000 52.4000 TC 25 10 186
1913040S17053 1913 15 SI MM NOT_NAMED 1913-02-09 15:00:00 TS -19.4850 52.3425 main 337 325 _________P____ -1 -19.4850 52.3425 TC 25 10 186
1913040S17053 1913 15 SI MM NOT_NAMED 1913-02-09 18:00:00 TS -20.0000 52.3000 main 325 308 _________O____ -1 -20.0000 52.3000 TC 25 11 183
1913040S17053 1913 15 SI MM NOT_NAMED 1913-02-09 21:00:00 TS -20.5500 52.2850 main 308 300 _________P____ -1 -20.5500 52.2850 TC 25 11 180
1913040S17053 1913 15 SI MM NOT_NAMED 1913-02-10 00:00:00 TS -21.1000 52.3000 main 300 300 _________O____ -1 -21.1000 52.3000 TC 25 11 177
1913040S17053 1913 15 SI MM NOT_NAMED 1913-02-10 03:00:00 TS -21.6150 52.3350 main 305 300 _________P____ -1 -21.6150 52.3350 TC 25 10 174
1913040S17053 1913 15 SI MM NOT_NAMED 1913-02-10 06:00:00 TS -22.1000 52.4000 main 310 310 _________O____ -1 -22.1000 52.4000 TC 25 10 172
1913040S17053 1913 15 SI MM NOT_NAMED 1913-02-10 09:00:00 TS -22.5575 52.4851 main 323 323 _________P____ -1 -22.5575 52.4851 TC 25 9 168
1913040S17053 1913 15 SI MM NOT_NAMED 1913-02-10 12:00:00 TS -23.0000 52.6000 main 336 336 _________O____ -1 -23.0000 52.6000 TC 25 9 165
1913040S17053 1913 15 SI MM NOT_NAMED 1913-02-10 15:00:00 TS -23.4500 52.7351 main 355 355 _________P____ -1 -23.4500 52.7351 TC 25 9 163
1913040S17053 1913 15 SI MM NOT_NAMED 1913-02-10 18:00:00 TS -23.9000 52.9000 main 380 380 _________O____ -1 -23.9000 52.9000 TC 25 9 161
1913040S17053 1913 15 SI MM NOT_NAMED 1913-02-10 21:00:00 TS -24.3349 53.0704 main 404 404 _________P____ -1 -24.3349 53.0704 TC 25 10 158
1913040S17053 1913 15 SI MM NOT_NAMED 1913-02-11 00:00:00 TS -24.8000 53.3000 main 441 441 _________O____ -1 -24.8000 53.3000 TC 25 11 153
1913040S17053 1913 15 SI MM NOT_NAMED 1913-02-11 03:00:00 TS -25.3351 53.6274 main 479 479 _________P____ -1 -25.3351 53.6274 TC 25 13 150
1913040S17053 1913 15 SI MM NOT_NAMED 1913-02-11 06:00:00 TS -25.9000 54.0000 main 528 528 _________O____ -1 -25.9000 54.0000 TC 25 13 150
1913040S17053 1913 15 SI MM NOT_NAMED 1913-02-11 09:00:00 TS -26.4725 54.3575 main 582 582 _________P____ -1 -26.4725 54.3575 TC 25 13 150
1913040S17053 1913 15 SI MM NOT_NAMED 1913-02-11 12:00:00 TS -27.0000 54.7000 main 632 632 _________O____ -1 -27.0000 54.7000 TC 25 11 149
1913040S17053 1913 15 SI MM NOT_NAMED 1913-02-11 15:00:00 TS -27.4299 55.0079 main 673 673 _________P____ -1 -27.4299 55.0079 TC 25 10 146
1913040S17053 1913 15 SI MM NOT_NAMED 1913-02-11 18:00:00 TS -27.8000 55.3000 main 715 715 _________O____ -1 -27.8000 55.3000 TC 25 9 145
1913040S17053 1913 15 SI MM NOT_NAMED 1913-02-11 21:00:00 TS -28.1498 55.5855 main 748 748 _________P____ -1 -28.1498 55.5855 TC 25 9 143
1913040S17053 1913 15 SI MM NOT_NAMED 1913-02-12 00:00:00 TS -28.5000 55.9000 main 793 793 _________O____ -1 -28.5000 55.9000 TC 25 10 141
1913040S17053 1913 15 SI MM NOT_NAMED 1913-02-12 03:00:00 TS -28.8999 56.2776 main 840 840 _________P____ -1 -28.8999 56.2776 TC 25 11 139
1913040S17053 1913 15 SI MM NOT_NAMED 1913-02-12 06:00:00 TS -29.3000 56.7000 main 889 889 _________O____ -1 -29.3000 56.7000 TC 25 11 135
1913040S17053 1913 15 SI MM NOT_NAMED 1913-02-12 09:00:00 TS -29.6650 57.1502 main 940 940 _________P____ -1 -29.6650 57.1502 TC 25 11 132
1913040S17053 1913 15 SI MM NOT_NAMED 1913-02-12 12:00:00 TS -30.0000 57.6000 main 981 981 _________O____ -1 -30.0000 57.6000 TC 25 10 131
1913040S17053 1913 15 SI MM NOT_NAMED 1913-02-12 15:00:00 TS -30.3148 58.0078 main 1022 1022 _________P____ -1 -30.3148 58.0078 TC 25 9 131
1913040S17053 1913 15 SI MM NOT_NAMED 1913-02-12 18:00:00 TS -30.6000 58.4000 main 1064 1064 _________O____ -1 -30.6000 58.4000 TC 25 9 129
1913040S17053 1913 15 SI MM NOT_NAMED 1913-02-12 21:00:00 TS -30.8578 58.7971 main 1107 1107 _________P____ -1 -30.8578 58.7971 TC 25 9 126
1913040S17053 1913 15 SI MM NOT_NAMED 1913-02-13 00:00:00 TS -31.1000 59.2000 main 1141 _________O____ -1 -31.1000 59.2000 TC 25 8 125

About IBTrACS Database

This database is a web-friendly format of International Best Track Archive for Climate Stewardship (IBTrACS), a global best track data archive curated by NOAA dating back to 1842.

Updated: 2021-11-26